Time;durP1;ratioP1;P1;durP2;ratioP2;P2;SDS_P1;SDS_P2;PMS_P1;PMS_P2;Temp;Humidity;BMP_temperature;BMP_pressure;BME280_temperature;BME280_humidity;BME280_pressure;Samples;Min_cycle;Max_cycle;Signal;HPM_P1;HPM_P2
2022/06/01 00:01:03;;;;;;;2.67;1.37;;;15.40;63.00;;;;;;2373170;56;21111;-76
2022/06/01 00:03:32;;;;;;;1.58;1.30;;;15.40;63.10;;;;;;2372569;56;21620;-76
2022/06/01 00:06:00;;;;;;;3.35;1.30;;;15.40;63.20;;;;;;2372889;56;21106;-76
2022/06/01 00:08:27;;;;;;;1.30;1.08;;;15.40;62.90;;;;;;2372815;56;21051;-76
2022/06/01 00:10:55;;;;;;;1.40;1.10;;;15.30;63.00;;;;;;2373057;56;21059;-76
2022/06/01 00:13:23;;;;;;;1.52;1.42;;;15.30;63.20;;;;;;2372981;56;21503;-76
2022/06/01 00:15:52;;;;;;;1.67;1.40;;;15.20;63.30;;;;;;2372463;56;21055;-76
2022/06/01 00:18:19;;;;;;;1.42;1.23;;;15.20;63.40;;;;;;2372852;56;21039;-76
2022/06/01 00:20:47;;;;;;;1.73;1.30;;;15.10;63.40;;;;;;2372653;56;21306;-76
2022/06/01 00:23:14;;;;;;;2.00;1.40;;;15.10;63.40;;;;;;2373026;56;21058;-76
2022/06/01 00:25:42;;;;;;;1.40;1.30;;;15.10;63.30;;;;;;2372605;56;21066;-76
2022/06/01 00:28:10;;;;;;;2.00;1.60;;;15.10;63.40;;;;;;2373138;56;21055;-76
2022/06/01 00:30:37;;;;;;;2.20;1.25;;;15.00;63.40;;;;;;2372828;56;21052;-76
2022/06/01 00:33:05;;;;;;;1.75;1.42;;;15.00;63.70;;;;;;2372258;56;21094;-76
2022/06/01 00:35:33;;;;;;;1.92;1.40;;;15.00;63.70;;;;;;2625453;52;21122;-76
2022/06/01 00:38:00;;;;;;;3.80;1.50;;;15.00;63.90;;;;;;2626531;52;21051;-75
2022/06/01 00:40:29;;;;;;;2.55;1.37;;;14.90;63.80;;;;;;2372352;56;21565;-76
2022/06/01 00:43:00;;;;;;;1.25;1.15;;;14.90;64.10;;;;;;2372850;56;21063;-76
2022/06/01 00:45:30;;;;;;;2.00;1.80;;;14.90;64.10;;;;;;2372712;56;21121;-76
2022/06/01 00:47:58;;;;;;;2.60;1.37;;;14.80;64.10;;;;;;2372854;56;21067;-76
2022/06/01 00:50:28;;;;;;;1.67;1.30;;;14.80;64.30;;;;;;2372339;56;21090;-76
2022/06/01 00:52:59;;;;;;;1.48;1.37;;;14.80;64.70;;;;;;2372979;56;21301;-76
2022/06/01 00:55:29;;;;;;;1.77;1.42;;;14.80;64.60;;;;;;2371814;56;21023;-76
2022/06/01 00:58:03;;;;;;;3.22;1.42;;;14.80;64.60;;;;;;2372694;56;21063;-76
2022/06/01 01:00:32;;;;;;;1.62;1.40;;;14.80;64.70;;;;;;2372643;56;21042;-76
2022/06/01 01:03:02;;;;;;;2.30;1.42;;;14.70;64.50;;;;;;2373010;56;21058;-76
2022/06/01 01:05:32;;;;;;;1.83;1.30;;;14.70;65.30;;;;;;2372378;56;21043;-76
2022/06/01 01:08:04;;;;;;;1.85;1.42;;;14.70;64.40;;;;;;2373018;56;21046;-76
2022/06/01 01:10:32;;;;;;;3.15;1.62;;;14.70;64.50;;;;;;2373251;56;21059;-76
2022/06/01 01:13:04;;;;;;;3.85;1.40;;;14.60;64.20;;;;;;2372603;56;21051;-76
2022/06/01 01:15:37;;;;;;;1.90;1.52;;;14.60;64.40;;;;;;2372742;56;21058;-76
2022/06/01 01:18:09;;;;;;;1.85;1.45;;;14.50;64.20;;;;;;2372899;56;21042;-76
2022/06/01 01:20:43;;;;;;;1.80;1.70;;;14.50;64.10;;;;;;2373190;56;21126;-76
2022/06/01 01:23:24;;;;;;;1.67;1.58;;;14.50;64.50;;;;;;2372920;56;21055;-76
2022/06/01 01:25:52;;;;;;;6.32;1.52;;;14.40;64.50;;;;;;2625665;52;21110;-76
2022/06/01 01:28:19;;;;;;;2.05;1.50;;;14.40;64.30;;;;;;2373077;56;21055;-76
2022/06/01 01:33:42;;;;;;;1.55;1.40;;;14.30;65.00;;;;;;2355003;57;22110;-75
2022/06/01 01:36:12;;;;;;;2.75;1.67;;;14.30;64.90;;;;;;2346150;57;21714;-76
2022/06/01 01:38:46;;;;;;;2.08;1.85;;;14.20;64.90;;;;;;2362758;56;21050;-76
2022/06/01 01:41:18;;;;;;;2.28;1.80;;;14.20;64.90;;;;;;2373975;56;21035;-75
2022/06/01 01:43:53;;;;;;;2.85;1.52;;;14.20;65.00;;;;;;2374224;56;21027;-76
2022/06/01 01:46:20;;;;;;;2.22;1.60;;;14.10;65.00;;;;;;2373563;56;21114;-76
2022/06/01 01:48:48;;;;;;;3.12;1.48;;;14.10;65.40;;;;;;2373719;56;21540;-75
2022/06/01 01:51:20;;;;;;;2.30;1.62;;;14.00;65.00;;;;;;2373847;56;21047;-76
2022/06/01 01:53:48;;;;;;;2.60;1.83;;;14.00;65.00;;;;;;2374194;56;21613;-76
2022/06/01 01:56:25;;;;;;;2.20;1.73;;;14.00;64.90;;;;;;2373359;56;21106;-76
2022/06/01 01:59:24;;;;;;;2.17;1.55;;;13.90;64.90;;;;;;2373704;56;21059;-75
2022/06/01 02:01:59;;;;;;;2.40;1.70;;;13.90;65.00;;;;;;2373798;56;21565;-75
2022/06/01 02:07:27;;;;;;;1.60;1.50;;;13.80;64.80;;;;;;2373543;56;21607;-75
2022/06/01 02:12:43;;;;;;;2.17;1.77;;;13.70;65.10;;;;;;2373929;56;20999;-76
2022/06/01 02:15:18;;;;;;;2.40;2.00;;;13.60;65.10;;;;;;2373847;56;21046;-75
2022/06/01 02:17:49;;;;;;;2.72;2.00;;;13.50;65.20;;;;;;2373916;56;21107;-76
2022/06/01 02:20:24;;;;;;;2.20;1.80;;;13.50;65.20;;;;;;2373833;56;21529;-75
2022/06/01 02:22:52;;;;;;;2.03;1.73;;;13.50;65.40;;;;;;2373468;56;21114;-76
2022/06/01 02:25:20;;;;;;;2.67;1.73;;;13.50;65.80;;;;;;2373626;56;21055;-76
2022/06/01 02:27:50;;;;;;;3.45;1.80;;;13.50;66.00;;;;;;2373548;56;21617;-76
2022/06/01 02:30:22;;;;;;;2.20;1.77;;;13.40;66.20;;;;;;2373678;56;21589;-75
2022/06/01 02:32:50;;;;;;;1.92;1.60;;;13.40;66.60;;;;;;2373909;56;21051;-76
2022/06/01 02:35:22;;;;;;;5.72;2.25;;;13.40;67.00;;;;;;2373643;56;21142;-76
2022/06/01 02:37:54;;;;;;;2.65;2.08;;;13.40;67.50;;;;;;2373983;56;21054;-76
2022/06/01 02:40:23;;;;;;;1.90;1.80;;;13.40;67.80;;;;;;2374129;56;21027;-75
2022/06/01 02:42:52;;;;;;;2.67;1.95;;;13.40;68.10;;;;;;2627851;52;21043;-75
2022/06/01 02:45:22;;;;;;;2.30;2.10;;;13.40;68.30;;;;;;2372359;56;21118;-76
2022/06/01 02:47:52;;;;;;;2.97;2.40;;;13.30;68.30;;;;;;2373056;56;21059;-76
2022/06/01 02:50:22;;;;;;;2.15;1.95;;;13.30;68.20;;;;;;2372796;56;21118;-75
2022/06/01 02:52:50;;;;;;;2.70;2.12;;;13.30;68.30;;;;;;2373047;56;21051;-76
2022/06/01 02:55:20;;;;;;;2.50;2.30;;;13.30;68.10;;;;;;2372360;56;21138;-76
2022/06/01 02:57:49;;;;;;;3.15;2.42;;;13.30;68.10;;;;;;2372892;56;21051;-76
2022/06/01 03:00:19;;;;;;;4.00;2.22;;;13.30;68.00;;;;;;2372939;56;21099;-76
2022/06/01 03:02:48;;;;;;;3.28;2.42;;;13.30;68.10;;;;;;2372922;56;21055;-76
2022/06/01 03:05:18;;;;;;;7.10;2.80;;;13.30;68.20;;;;;;2625969;52;21127;-76
2022/06/01 03:07:46;;;;;;;2.55;2.15;;;13.20;68.60;;;;;;2372831;56;21549;-76
2022/06/01 03:10:13;;;;;;;5.37;2.53;;;13.20;69.00;;;;;;2372901;56;21051;-76
2022/06/01 03:12:41;;;;;;;3.33;2.60;;;13.10;70.20;;;;;;2372793;56;21109;-76
2022/06/01 03:15:11;;;;;;;3.50;2.75;;;13.10;69.80;;;;;;2626043;52;21117;-76
2022/06/01 03:17:39;;;;;;;3.55;2.75;;;13.10;69.90;;;;;;2373350;56;21631;-76
2022/06/01 03:20:10;;;;;;;3.55;2.75;;;13.10;70.00;;;;;;2373070;56;21055;-76
2022/06/01 03:22:39;;;;;;;3.67;2.33;;;13.10;70.20;;;;;;2373306;56;21054;-75
2022/06/01 03:25:10;;;;;;;3.58;2.35;;;13.10;70.40;;;;;;2625294;52;21043;-76
2022/06/01 03:27:38;;;;;;;3.37;2.33;;;13.10;70.70;;;;;;2625509;52;21040;-76
2022/06/01 03:30:10;;;;;;;2.92;2.45;;;13.10;70.90;;;;;;2373181;56;21051;-75
2022/06/01 03:32:37;;;;;;;4.95;2.45;;;13.10;70.90;;;;;;2373014;56;21562;-76
2022/06/01 03:35:07;;;;;;;2.80;2.15;;;13.10;70.90;;;;;;2626423;52;21039;-76
2022/06/01 03:37:35;;;;;;;2.20;2.00;;;13.20;71.00;;;;;;2372689;56;21026;-76
2022/06/01 03:40:03;;;;;;;3.35;2.40;;;13.20;71.00;;;;;;2372787;56;21035;-75
2022/06/01 03:42:31;;;;;;;2.33;2.12;;;13.20;70.80;;;;;;2372200;56;21106;-76
2022/06/01 03:47:45;;;;;;;3.92;2.37;;;13.20;70.60;;;;;;2373345;56;21019;-76
2022/06/01 03:50:13;;;;;;;2.67;2.08;;;13.30;70.40;;;;;;2372905;56;21357;-76
2022/06/01 03:52:40;;;;;;;5.00;2.83;;;13.30;70.30;;;;;;2372738;56;21688;-76
2022/06/01 03:55:10;;;;;;;3.90;2.45;;;13.30;70.20;;;;;;2372493;56;21122;-75
2022/06/01 03:57:37;;;;;;;5.22;2.20;;;13.30;70.00;;;;;;2372470;56;21059;-76
2022/06/01 04:00:09;;;;;;;2.95;2.47;;;13.30;69.90;;;;;;2372597;56;21051;-76
2022/06/01 04:02:37;;;;;;;3.28;2.00;;;13.30;70.20;;;;;;2373040;56;21117;-76
2022/06/01 04:05:06;;;;;;;4.03;3.17;;;13.30;70.30;;;;;;2464106;54;21536;-72
2022/06/01 04:07:33;;;;;;;2.60;2.15;;;13.30;70.50;;;;;;2330691;57;21579;-74
2022/06/01 04:10:01;;;;;;;2.90;2.40;;;13.40;70.50;;;;;;2328227;57;21034;-74
2022/06/01 04:12:29;;;;;;;2.87;2.42;;;13.40;70.70;;;;;;2329279;57;21050;-75
2022/06/01 04:14:57;;;;;;;2.58;2.30;;;13.40;70.50;;;;;;2329522;57;21301;-73
2022/06/01 04:17:24;;;;;;;2.65;2.45;;;13.40;70.30;;;;;;2328984;57;21054;-74
2022/06/01 04:19:51;;;;;;;3.65;2.85;;;13.40;70.30;;;;;;2329513;57;21034;-74
2022/06/01 04:22:20;;;;;;;3.85;2.92;;;13.50;70.40;;;;;;2328322;57;21054;-74
2022/06/01 04:24:49;;;;;;;3.55;2.60;;;13.50;70.50;;;;;;2328099;57;21092;-75
2022/06/01 04:27:16;;;;;;;3.20;2.90;;;13.50;70.60;;;;;;2329005;57;21055;-74
2022/06/01 04:29:44;;;;;;;3.85;2.58;;;13.50;70.70;;;;;;2329018;57;21083;-74
2022/06/01 04:32:14;;;;;;;2.60;2.40;;;13.50;70.90;;;;;;2329624;57;21605;-74
2022/06/01 04:34:41;;;;;;;3.10;2.72;;;13.50;71.10;;;;;;2329349;57;21054;-74
2022/06/01 04:37:09;;;;;;;5.55;3.25;;;13.50;71.30;;;;;;2329005;57;21050;-74
2022/06/01 04:39:36;;;;;;;4.03;2.22;;;13.60;71.50;;;;;;2329540;57;21110;-74
2022/06/01 04:42:06;;;;;;;3.25;2.65;;;13.60;71.60;;;;;;2328677;57;21050;-74
2022/06/01 04:44:33;;;;;;;2.90;2.60;;;13.60;71.70;;;;;;2329403;57;21451;-74
2022/06/01 04:47:01;;;;;;;5.97;2.90;;;13.70;71.90;;;;;;2329305;57;21058;-74
2022/06/01 04:49:28;;;;;;;3.28;2.47;;;13.80;71.90;;;;;;2329466;57;21109;-72
2022/06/01 04:51:55;;;;;;;3.05;2.70;;;13.80;72.10;;;;;;2329590;57;21050;-72
2022/06/01 04:54:23;;;;;;;3.47;2.40;;;13.90;72.10;;;;;;2572818;54;21054;-73
2022/06/01 04:56:50;;;;;;;2.60;2.20;;;14.00;72.10;;;;;;2329049;57;21655;-71
2022/06/01 04:59:17;;;;;;;4.15;2.67;;;14.10;72.00;;;;;;2572468;53;21505;-75
2022/06/01 05:01:45;;;;;;;3.25;2.50;;;14.20;71.90;;;;;;2327867;57;21608;-73
2022/06/01 05:04:13;;;;;;;3.40;2.70;;;14.30;72.10;;;;;;2327957;57;21054;-72
2022/06/01 05:06:40;;;;;;;3.05;2.75;;;14.30;72.00;;;;;;2328286;57;21039;-73
2022/06/01 05:09:08;;;;;;;4.45;2.65;;;14.40;71.80;;;;;;2572906;53;21050;-72
2022/06/01 05:11:35;;;;;;;2.67;2.45;;;14.50;71.90;;;;;;2328998;57;21054;-73
2022/06/01 05:14:03;;;;;;;2.55;2.05;;;14.50;71.80;;;;;;2328531;57;21584;-72
2022/06/01 05:16:31;;;;;;;2.87;2.20;;;14.60;71.90;;;;;;2328174;57;21083;-72
2022/06/01 05:18:58;;;;;;;4.37;2.75;;;14.70;72.20;;;;;;2572112;53;21090;-72
2022/06/01 05:21:26;;;;;;;3.37;2.53;;;14.80;71.80;;;;;;2328955;57;21058;-72
2022/06/01 05:23:53;;;;;;;4.72;2.80;;;14.80;70.80;;;;;;2327557;57;21672;-72
2022/06/01 05:26:20;;;;;;;3.40;2.40;;;14.90;70.60;;;;;;2328397;57;21058;-72
2022/06/01 05:28:47;;;;;;;3.22;2.50;;;14.90;70.60;;;;;;2571560;53;21057;-72
2022/06/01 05:31:15;;;;;;;3.37;2.70;;;15.00;70.70;;;;;;2327744;57;21085;-72
2022/06/01 05:33:44;;;;;;;3.05;2.10;;;15.10;70.90;;;;;;2328904;57;21062;-73
2022/06/01 05:36:12;;;;;;;3.22;2.42;;;15.20;70.70;;;;;;2328426;57;21054;-72
2022/06/01 05:38:40;;;;;;;3.53;3.12;;;15.30;70.90;;;;;;2327863;57;21572;-72
2022/06/01 05:41:08;;;;;;;2.45;2.03;;;15.30;70.20;;;;;;2329074;57;21113;-72
2022/06/01 05:43:35;;;;;;;2.42;2.10;;;15.40;70.00;;;;;;2329336;57;21305;-72
2022/06/01 05:46:03;;;;;;;2.62;1.70;;;15.50;69.70;;;;;;2328682;57;21051;-72
2022/06/01 05:48:30;;;;;;;2.00;1.70;;;15.60;69.50;;;;;;2572727;53;21030;-72
2022/06/01 05:50:58;;;;;;;3.25;2.03;;;15.60;69.00;;;;;;2572871;54;21097;-72
2022/06/01 05:53:25;;;;;;;2.53;2.22;;;15.60;68.60;;;;;;2329613;57;21074;-72
2022/06/01 05:55:53;;;;;;;2.42;2.03;;;15.70;68.40;;;;;;2328675;57;22194;-72
2022/06/01 05:58:22;;;;;;;2.35;1.98;;;15.70;68.50;;;;;;2329322;57;21535;-72
2022/06/01 06:00:51;;;;;;;3.05;1.67;;;15.80;68.30;;;;;;2329284;57;21504;-72
2022/06/01 06:03:23;;;;;;;3.60;1.67;;;15.80;68.00;;;;;;2572942;54;21030;-72
2022/06/01 06:08:36;;;;;;;2.83;1.98;;;15.80;67.30;;;;;;2329478;57;21014;-71
2022/06/01 06:11:06;;;;;;;2.00;1.87;;;15.80;67.00;;;;;;2328963;57;21660;-72
2022/06/01 06:13:34;;;;;;;2.85;2.08;;;15.80;67.30;;;;;;2329839;57;21056;-72
2022/06/01 06:16:02;;;;;;;2.30;2.10;;;15.80;67.50;;;;;;2329374;57;21066;-71
2022/06/01 06:18:30;;;;;;;2.78;1.87;;;15.80;67.10;;;;;;2329687;57;21054;-73
2022/06/01 06:20:57;;;;;;;3.45;1.92;;;15.80;67.30;;;;;;2329722;57;21180;-74
2022/06/01 06:23:25;;;;;;;3.08;1.95;;;15.80;66.80;;;;;;2573098;54;21038;-74
2022/06/01 06:25:52;;;;;;;2.85;2.22;;;15.80;67.10;;;;;;2329520;57;21066;-74
2022/06/01 06:28:20;;;;;;;3.00;2.33;;;15.80;67.90;;;;;;2328711;57;21073;-74
2022/06/01 06:30:47;;;;;;;4.90;2.45;;;15.70;66.90;;;;;;2329718;57;21529;-74
2022/06/01 06:33:15;;;;;;;2.95;2.65;;;15.70;66.90;;;;;;2573289;54;21125;-74
2022/06/01 06:35:42;;;;;;;4.20;2.47;;;15.70;67.00;;;;;;2572503;54;21042;-74
2022/06/01 06:38:11;;;;;;;5.03;2.47;;;15.70;67.40;;;;;;2329595;57;21042;-74
2022/06/01 06:40:38;;;;;;;4.12;2.83;;;15.60;67.60;;;;;;2573124;54;21050;-74
2022/06/01 06:43:06;;;;;;;4.03;2.45;;;15.60;67.60;;;;;;2329952;57;21078;-74
2022/06/01 06:45:33;;;;;;;5.15;3.05;;;15.60;67.90;;;;;;2328253;57;21117;-74
2022/06/01 06:48:01;;;;;;;3.92;3.03;;;15.50;67.90;;;;;;2329655;57;21115;-74
2022/06/01 06:50:28;;;;;;;4.10;3.20;;;15.50;68.40;;;;;;2573044;54;21648;-74
2022/06/01 06:52:55;;;;;;;6.10;3.72;;;15.40;68.70;;;;;;2329458;57;21062;-74
2022/06/01 06:55:23;;;;;;;3.53;3.22;;;15.40;68.80;;;;;;2329000;57;21050;-73
2022/06/01 06:57:50;;;;;;;5.37;4.28;;;15.40;69.00;;;;;;2329240;57;21058;-74
2022/06/01 07:00:18;;;;;;;5.12;4.60;;;15.30;69.00;;;;;;2329532;57;21046;-74
2022/06/01 07:02:46;;;;;;;5.70;4.95;;;15.30;69.30;;;;;;2329383;57;21134;-74
2022/06/01 07:06:08;;;;;;;5.97;5.10;;;15.30;69.90;;;;;;2572894;54;21528;-75
2022/06/01 07:08:36;;;;;;;7.15;5.10;;;15.20;69.80;;;;;;2329502;57;21102;-74
2022/06/01 07:11:04;;;;;;;8.02;6.05;;;15.20;69.60;;;;;;2573030;54;21046;-74
2022/06/01 07:13:32;;;;;;;10.15;7.32;;;15.20;69.50;;;;;;2329568;57;21036;-74
2022/06/01 07:16:05;;;;;;;9.82;6.95;;;15.10;69.50;;;;;;2329248;57;21118;-75
2022/06/01 07:18:33;;;;;;;8.10;6.45;;;15.10;70.10;;;;;;2329847;57;21050;-74
2022/06/01 07:21:01;;;;;;;10.48;6.60;;;15.00;70.40;;;;;;2329484;57;21043;-75
2022/06/01 07:23:28;;;;;;;10.35;6.80;;;15.00;70.80;;;;;;2329620;57;21508;-75
2022/06/01 07:25:56;;;;;;;12.20;8.40;;;15.00;71.10;;;;;;2329166;57;21118;-75
2022/06/01 07:28:24;;;;;;;10.73;8.73;;;14.80;70.60;;;;;;2329649;57;21312;-75
2022/06/01 07:30:56;;;;;;;13.50;10.85;;;14.70;71.80;;;;;;2572798;54;21081;-74
2022/06/01 07:33:25;;;;;;;11.88;8.75;;;14.60;72.50;;;;;;2329917;57;21062;-74
2022/06/01 07:35:53;;;;;;;12.88;9.43;;;14.40;72.80;;;;;;2329007;57;21046;-74
2022/06/01 07:43:54;;;;;;;10.15;8.50;;;14.20;75.40;;;;;;2329388;57;21018;-73
2022/06/01 07:46:21;;;;;;;11.80;9.23;;;14.30;75.90;;;;;;2572596;54;21597;-72
2022/06/01 07:48:49;;;;;;;11.35;7.82;;;14.30;76.30;;;;;;2573216;53;21138;-72
2022/06/01 07:51:18;;;;;;;9.55;6.78;;;14.30;76.60;;;;;;2329937;57;21129;-72
2022/06/01 07:53:45;;;;;;;9.25;7.25;;;14.40;76.90;;;;;;2329599;57;21054;-72
2022/06/01 07:56:13;;;;;;;11.77;8.27;;;14.50;76.80;;;;;;2329452;57;21046;-72
2022/06/01 07:58:40;;;;;;;11.00;8.38;;;14.50;77.00;;;;;;2573173;53;21058;-72
2022/06/01 08:01:07;;;;;;;9.68;7.75;;;14.50;77.20;;;;;;2328802;57;21125;-72
2022/06/01 08:03:35;;;;;;;9.75;7.72;;;14.60;77.50;;;;;;2329717;57;21049;-72
2022/06/01 08:06:02;;;;;;;8.23;7.28;;;14.80;77.90;;;;;;2329065;57;21185;-72
2022/06/01 08:08:30;;;;;;;8.10;6.35;;;14.80;77.40;;;;;;2572968;53;22296;-72
2022/06/01 08:10:59;;;;;;;8.38;7.37;;;14.90;77.10;;;;;;2329473;57;21542;-72
2022/06/01 08:13:27;;;;;;;7.25;6.07;;;14.90;76.80;;;;;;2329707;57;21133;-72
2022/06/01 08:15:55;;;;;;;6.45;5.80;;;15.00;76.30;;;;;;2329307;57;21034;-72
2022/06/01 08:18:24;;;;;;;7.15;5.80;;;15.00;76.60;;;;;;2329402;57;21062;-72
2022/06/01 08:20:52;;;;;;;8.35;6.18;;;15.20;77.10;;;;;;2329638;57;21050;-72
2022/06/01 08:23:21;;;;;;;8.85;5.47;;;15.30;76.70;;;;;;2572655;54;21058;-72
2022/06/01 08:25:50;;;;;;;5.87;4.90;;;15.40;76.20;;;;;;2329474;57;21117;-72
2022/06/01 08:28:18;;;;;;;6.93;5.78;;;15.50;76.70;;;;;;2329275;57;21054;-72
2022/06/01 08:30:46;;;;;;;5.93;5.18;;;15.60;75.50;;;;;;2329792;57;21042;-72
2022/06/01 08:33:14;;;;;;;5.10;4.60;;;15.70;75.60;;;;;;2329487;57;21130;-72
2022/06/01 08:35:44;;;;;;;5.35;4.25;;;15.70;75.20;;;;;;2328977;57;21070;-72
2022/06/01 08:38:12;;;;;;;4.70;4.20;;;15.80;75.00;;;;;;2329304;57;21138;-72
2022/06/01 08:40:50;;;;;;;6.70;5.07;;;15.80;74.70;;;;;;2329444;57;21042;-71
2022/06/01 08:43:19;;;;;;;5.22;3.97;;;15.90;74.60;;;;;;2329609;57;21063;-71
2022/06/01 08:45:51;;;;;;;4.93;4.43;;;15.90;74.50;;;;;;2328929;57;21050;-72
2022/06/01 08:48:24;;;;;;;7.22;5.30;;;15.90;74.20;;;;;;2572822;53;21524;-72
2022/06/01 08:50:52;;;;;;;8.07;5.95;;;15.90;74.10;;;;;;2329635;57;21058;-72
2022/06/01 08:53:22;;;;;;;7.62;5.37;;;15.90;73.30;;;;;;2329454;57;21051;-71
2022/06/01 08:55:53;;;;;;;7.10;5.62;;;15.90;73.10;;;;;;2329356;57;21047;-71
2022/06/01 08:58:30;;;;;;;7.30;5.93;;;15.80;72.70;;;;;;2329258;57;21098;-72
2022/06/01 09:01:01;;;;;;;6.70;5.55;;;15.80;72.90;;;;;;2329444;57;21062;-72
2022/06/01 09:03:36;;;;;;;7.03;5.15;;;15.70;72.90;;;;;;2572799;54;21517;-72
2022/06/01 09:06:08;;;;;;;8.32;5.82;;;15.70;72.90;;;;;;2329232;57;21038;-72
2022/06/01 09:08:42;;;;;;;8.77;5.80;;;15.70;72.70;;;;;;2573017;53;21186;-72
2022/06/01 09:11:11;;;;;;;7.22;5.47;;;15.70;72.70;;;;;;2573301;54;21027;-72
2022/06/01 09:13:52;;;;;;;6.60;5.75;;;15.70;72.70;;;;;;2329619;57;21097;-72
2022/06/01 09:16:25;;;;;;;6.85;5.22;;;15.70;72.80;;;;;;2572735;54;21043;-72
2022/06/01 09:18:54;;;;;;;6.28;5.28;;;15.70;72.80;;;;;;2572225;53;21030;-72
2022/06/01 09:24:16;;;;;;;5.70;5.07;;;15.70;73.30;;;;;;2329841;57;21002;-72
2022/06/01 09:26:57;;;;;;;7.32;5.72;;;15.80;72.70;;;;;;2329320;57;21054;-72
2022/06/01 09:29:28;;;;;;;6.18;5.47;;;15.80;72.70;;;;;;2329697;57;21101;-72
2022/06/01 09:32:01;;;;;;;9.32;6.28;;;15.90;72.50;;;;;;2329580;57;21117;-72
2022/06/01 09:34:36;;;;;;;6.37;5.25;;;15.90;72.70;;;;;;2572563;53;21039;-72
2022/06/01 09:37:07;;;;;;;11.70;6.45;;;15.90;72.60;;;;;;2328687;57;21050;-72
2022/06/01 09:39:38;;;;;;;6.25;4.87;;;15.90;72.80;;;;;;2329333;57;21105;-72
2022/06/01 09:42:17;;;;;;;6.62;5.30;;;16.00;73.20;;;;;;2329240;57;21734;-72
2022/06/01 09:44:48;;;;;;;6.03;5.22;;;16.10;73.40;;;;;;2329357;57;21142;-72
2022/06/01 09:47:33;;;;;;;6.53;4.90;;;16.10;73.00;;;;;;2329320;57;21086;-72
2022/06/01 09:50:01;;;;;;;5.35;4.47;;;16.20;73.50;;;;;;2329481;57;21703;-73
2022/06/01 09:52:32;;;;;;;4.90;4.40;;;16.30;72.80;;;;;;2329433;57;21663;-72
2022/06/01 09:55:13;;;;;;;6.70;4.45;;;16.30;72.40;;;;;;2329310;57;21101;-73
2022/06/01 09:57:40;;;;;;;4.70;3.92;;;16.40;72.40;;;;;;2329751;57;21098;-72
2022/06/01 10:06:12;;;;;;;3.72;3.42;;;16.60;70.60;;;;;;2309259;53;21559;-75
2022/06/01 10:08:43;;;;;;;3.58;3.10;;;16.60;69.90;;;;;;2302257;58;21070;-73
2022/06/01 10:11:28;;;;;;;4.80;3.05;;;16.60;69.40;;;;;;2301599;58;21544;-74
2022/06/01 10:14:04;;;;;;;3.65;2.87;;;16.70;69.70;;;;;;2344498;54;21059;-74
2022/06/01 10:16:38;;;;;;;3.00;2.70;;;16.80;69.00;;;;;;2301267;58;21615;-74
2022/06/01 10:19:08;;;;;;;2.58;2.37;;;16.90;68.30;;;;;;2320597;54;21082;-76
2022/06/01 10:21:47;;;;;;;2.65;2.33;;;16.90;67.30;;;;;;2301691;58;21098;-77
2022/06/01 10:24:22;;;;;;;2.10;1.90;;;17.00;66.30;;;;;;2301357;58;21066;-76
2022/06/01 10:26:55;;;;;;;2.50;2.25;;;17.00;65.70;;;;;;2307794;54;21619;-76
2022/06/01 10:29:29;;;;;;;2.30;2.10;;;17.10;65.50;;;;;;2301340;58;21292;-76
2022/06/01 10:32:00;;;;;;;1.60;1.50;;;17.10;64.90;;;;;;2301736;56;21062;-76
2022/06/01 10:34:33;;;;;;;2.37;1.60;;;17.10;64.00;;;;;;2301653;58;21061;-76
2022/06/01 10:37:06;;;;;;;2.25;2.05;;;17.10;64.20;;;;;;2301508;58;21145;-76
2022/06/01 10:39:39;;;;;;;4.00;1.85;;;17.00;63.90;;;;;;2301717;58;21609;-76
2022/06/01 10:42:15;;;;;;;1.80;1.70;;;17.10;62.90;;;;;;2301942;58;21107;-76
2022/06/01 10:44:48;;;;;;;1.80;1.70;;;17.10;62.80;;;;;;2301613;58;21070;-76
2022/06/01 10:47:18;;;;;;;;;;;17.10;62.20;;;;;;2356602;54;21070;-76
2022/06/01 10:49:53;;;;;;;1.65;1.40;;;17.10;62.40;;;;;;2303263;54;20060;-76
2022/06/01 10:52:29;;;;;;;1.85;1.70;;;17.00;60.30;;;;;;2300863;58;21397;-76
2022/06/01 10:55:08;;;;;;;2.97;1.90;;;17.10;61.10;;;;;;2329018;54;21137;-76
2022/06/01 10:57:39;;;;;;;2.35;1.92;;;17.10;60.50;;;;;;2301462;58;21062;-76
2022/06/01 11:00:10;;;;;;;1.80;1.70;;;17.10;60.10;;;;;;2301908;58;21066;-76
2022/06/01 11:03:12;;;;;;;3.03;2.22;;;17.20;61.50;;;;;;2350945;54;21078;-74
2022/06/01 11:05:46;;;;;;;2.65;2.10;;;17.20;61.90;;;;;;2300415;58;21058;-74
2022/06/01 11:11:11;;;;;;;3.05;2.55;;;17.40;62.70;;;;;;2574678;53;22124;-74
2022/06/01 11:13:57;;;;;;;2.67;2.47;;;17.50;61.70;;;;;;2347919;57;21044;-73
2022/06/01 11:16:38;;;;;;;3.00;2.50;;;17.60;60.40;;;;;;2347498;57;21650;-74
2022/06/01 11:19:17;;;;;;;3.15;2.42;;;17.60;59.90;;;;;;2368441;56;21074;-74
2022/06/01 11:21:52;;;;;;;3.40;2.35;;;17.80;60.40;;;;;;2375110;56;21060;-74
2022/06/01 11:27:22;;;;;;;4.82;2.80;;;17.90;60.30;;;;;;2355915;57;22093;-75
2022/06/01 11:30:02;;;;;;;3.55;3.05;;;18.00;59.50;;;;;;2320651;58;21084;-76
2022/06/01 11:32:35;;;;;;;4.55;3.22;;;18.10;58.80;;;;;;2320463;58;21107;-74
2022/06/01 11:35:08;;;;;;;4.10;3.33;;;18.10;58.30;;;;;;2354442;54;21064;-75
2022/06/01 11:37:40;;;;;;;3.53;2.90;;;18.20;58.40;;;;;;2320641;58;21063;-75
2022/06/01 11:40:14;;;;;;;4.03;3.10;;;18.40;58.90;;;;;;2371165;54;21060;-75
2022/06/01 11:42:43;;;;;;;;;;;18.50;58.10;;;;;;2330251;54;21107;-75
2022/06/01 11:45:16;;;;;;;3.05;2.55;;;18.60;58.30;;;;;;2320454;58;20099;-76
2022/06/01 11:47:46;;;;;;;4.32;3.12;;;18.70;58.00;;;;;;2320641;58;21469;-74
2022/06/01 11:50:19;;;;;;;3.37;3.08;;;18.80;57.30;;;;;;2357899;54;21538;-75
2022/06/01 11:52:51;;;;;;;3.95;2.42;;;18.80;56.90;;;;;;2388006;54;21068;-75
2022/06/01 11:58:41;;;;;;;5.50;2.72;;;19.00;56.90;;;;;;2312701;58;22635;-74
2022/06/01 12:01:15;;;;;;;2.65;2.42;;;19.20;57.40;;;;;;2407049;54;21823;-73
2022/06/01 12:04:11;;;;;;;3.92;2.50;;;19.40;57.50;;;;;;2319153;58;21051;-74
2022/06/01 12:06:55;;;;;;;4.10;2.97;;;19.60;56.30;;;;;;2340854;54;21523;-74
2022/06/01 12:09:29;;;;;;;;;;;19.60;55.70;;;;;;2322359;58;21148;-76
2022/06/01 12:11:56;;;;;;;4.82;3.10;;;19.60;56.10;;;;;;2368052;54;20071;-76
2022/06/01 12:14:35;;;;;;;3.22;2.60;;;19.70;54.10;;;;;;2319068;58;21064;-75
2022/06/01 12:17:28;;;;;;;4.37;2.70;;;19.70;54.00;;;;;;2378797;54;21064;-76
2022/06/01 12:20:40;;;;;;;8.38;2.65;;;19.80;53.10;;;;;;2319271;58;21052;-76
2022/06/01 12:29:40;;;;;;;6.32;2.95;;;20.10;54.20;;;;;;2319016;54;21055;-75
2022/06/01 12:32:12;;;;;;;3.35;2.85;;;20.20;53.80;;;;;;2319142;58;21103;-75
2022/06/01 12:34:56;;;;;;;3.08;2.67;;;20.30;52.30;;;;;;2319005;58;21194;-74
2022/06/01 12:37:30;;;;;;;3.78;2.92;;;20.40;52.40;;;;;;2492667;54;21180;-76
2022/06/01 12:40:01;;;;;;;4.00;3.05;;;20.50;51.90;;;;;;2318224;58;21048;-75
2022/06/01 12:42:31;;;;;;;3.15;2.83;;;20.50;50.80;;;;;;2318583;58;21037;-76
2022/06/01 12:45:00;;;;;;;5.50;3.00;;;20.50;50.90;;;;;;2318603;58;21115;-76
2022/06/01 12:47:31;;;;;;;3.35;3.00;;;20.50;51.90;;;;;;2318405;58;21065;-75
2022/06/01 12:50:07;;;;;;;3.40;2.25;;;20.60;51.90;;;;;;2318963;58;21539;-75
2022/06/01 12:52:34;;;;;;;8.35;2.80;;;20.70;51.90;;;;;;2319119;58;21555;-75
2022/06/01 12:55:07;;;;;;;3.92;2.53;;;20.80;51.60;;;;;;2318620;58;21127;-75
2022/06/01 12:57:37;;;;;;;3.60;2.90;;;20.90;52.10;;;;;;2318541;58;21582;-76
2022/06/01 13:00:12;;;;;;;4.78;2.80;;;20.90;50.60;;;;;;2322309;54;21064;-74
2022/06/01 13:02:43;;;;;;;4.68;3.35;;;20.90;50.90;;;;;;2318607;58;21124;-74
2022/06/01 13:05:13;;;;;;;3.83;2.62;;;20.70;49.50;;;;;;2318779;58;21159;-75
2022/06/01 13:07:43;;;;;;;4.25;2.60;;;20.40;48.80;;;;;;2318548;58;21084;-76
2022/06/01 13:10:14;;;;;;;2.47;2.28;;;19.90;47.80;;;;;;2318104;58;21042;-75
2022/06/01 13:12:41;;;;;;;3.90;3.20;;;19.50;48.90;;;;;;2318034;58;21614;-75
2022/06/01 13:15:13;;;;;;;3.00;2.53;;;19.10;49.70;;;;;;2318001;58;21056;-75
2022/06/01 13:17:52;;;;;;;3.47;2.40;;;18.70;50.10;;;;;;2317567;58;21040;-75
2022/06/01 13:20:25;;;;;;;2.65;2.12;;;18.40;50.80;;;;;;2317940;58;21052;-74
2022/06/01 13:22:54;;;;;;;2.60;2.37;;;18.00;51.50;;;;;;2318269;58;21060;-73
2022/06/01 13:25:28;;;;;;;3.15;2.37;;;17.80;52.80;;;;;;2317382;58;21063;-74
2022/06/01 13:27:56;;;;;;;2.35;2.00;;;17.40;52.90;;;;;;2395562;54;21060;-74
2022/06/01 13:30:25;;;;;;;1.83;1.73;;;17.10;54.40;;;;;;2317705;58;21681;-74
2022/06/01 13:32:52;;;;;;;2.50;2.17;;;16.80;55.00;;;;;;2317657;58;21139;-74
2022/06/01 13:35:33;;;;;;;4.65;2.47;;;16.70;55.30;;;;;;2413275;54;21051;-73
2022/06/01 13:38:01;;;;;;;2.70;2.50;;;16.60;56.20;;;;;;2317645;58;21044;-74
2022/06/01 13:40:31;;;;;;;5.43;3.37;;;16.50;57.20;;;;;;2320316;54;21062;-74
2022/06/01 13:43:05;;;;;;;5.35;3.12;;;16.40;58.90;;;;;;2332230;54;21571;-74
2022/06/01 13:45:38;;;;;;;10.90;6.97;;;16.20;61.30;;;;;;2317799;58;21079;-74
2022/06/01 13:48:14;;;;;;;7.15;4.85;;;15.90;64.70;;;;;;2318133;58;21147;-74
2022/06/01 13:50:44;;;;;;;10.10;6.30;;;15.60;66.10;;;;;;2317901;58;21140;-73